Terminal Aerodrome Forecast
Issued by NWS

Home | Current Version | Previous Version | Text Only | Print | Product List | Glossary On
Versions: 1 2 3 4 5 6 7 8 9 10 11 12 13 14 15 16 17 18 19
855
FTUS42 KTAE 221049 AAA
TAFDHN
TAF AMD
KDHN 221049Z 2211/2306 11006KT 6SM -RA BR BKN004 OVC080
     FM221500 07008KT P6SM -SHRA OVC015
     FM222000 08009KT P6SM VCSH SCT025 BKN040
     FM230000 04004KT P6SM BKN015=

USA.gov is the U.S. government's official web portal to all federal, state and local government web resources and services.